createdAt,value
2019-05-05T00:01:26.452Z,0.20
2019-05-05T00:04:08.767Z,0.10
2019-05-05T00:06:38.050Z,0.10
2019-05-05T00:09:08.199Z,0.10
2019-05-05T00:11:44.980Z,0.10
2019-05-05T00:14:20.929Z,0.00
2019-05-05T00:16:55.574Z,0.00
2019-05-05T00:19:32.528Z,0.00
2019-05-05T00:21:55.995Z,0.10
2019-05-05T00:24:25.338Z,0.10
2019-05-05T00:26:55.395Z,0.10
2019-05-05T00:29:25.392Z,0.10
2019-05-05T00:31:54.871Z,0.10
2019-05-05T00:34:24.564Z,0.10
2019-05-05T00:36:55.242Z,0.10
2019-05-05T00:39:25.470Z,0.10
2019-05-05T00:41:55.587Z,0.10
2019-05-05T00:44:24.869Z,0.10
2019-05-05T00:47:22.410Z,0.10
2019-05-05T00:49:52.997Z,0.10
2019-05-05T00:52:24.431Z,0.10
2019-05-05T00:54:55.437Z,0.10
2019-05-05T00:57:24.604Z,0.10
2019-05-05T00:59:54.377Z,0.00
2019-05-05T01:02:34.374Z,0.00
2019-05-05T01:05:14.864Z,0.00
2019-05-05T01:07:44.479Z,0.00
2019-05-05T01:10:14.386Z,0.10
2019-05-05T01:12:45.027Z,0.10
2019-05-05T01:15:15.106Z,0.10
2019-05-05T01:17:45.141Z,0.10
2019-05-05T01:20:14.855Z,0.10
2019-05-05T01:22:44.809Z,0.10
2019-05-05T01:25:14.930Z,0.10
2019-05-05T01:27:45.294Z,0.10
2019-05-05T01:30:18.547Z,0.00
2019-05-05T01:32:50.814Z,0.00
2019-05-05T01:35:20.383Z,0.00
2019-05-05T01:37:58.482Z,0.00
2019-05-05T01:40:54.646Z,0.10
2019-05-05T01:43:25.290Z,0.10
2019-05-05T01:45:54.724Z,0.10
2019-05-05T01:48:24.851Z,0.10
2019-05-05T01:50:54.477Z,0.20
2019-05-05T01:53:24.499Z,0.30
2019-05-05T01:55:54.308Z,0.30
2019-05-05T01:58:24.463Z,0.30
2019-05-05T02:00:55.343Z,0.30
2019-05-05T02:03:24.762Z,0.30
2019-05-05T02:05:54.685Z,0.20
2019-05-05T02:08:24.500Z,0.20
2019-05-05T02:10:54.826Z,0.10
2019-05-05T02:13:25.193Z,0.10
2019-05-05T02:15:55.300Z,0.10
2019-05-05T02:18:25.350Z,0.00
2019-05-05T02:21:04.985Z,0.00
2019-05-05T02:23:36.091Z,0.00
2019-05-05T02:26:07.101Z,0.00
2019-05-05T02:28:45.370Z,0.00
2019-05-05T02:31:27.315Z,0.00
2019-05-05T02:33:57.073Z,-0.10
2019-05-05T02:36:26.520Z,-0.10
2019-05-05T02:38:56.841Z,-0.10
2019-05-05T02:41:27.035Z,-0.20
2019-05-05T02:43:57.317Z,-0.20
2019-05-05T02:46:44.532Z,-0.20
2019-05-05T02:49:15.098Z,-0.20
2019-05-05T02:51:46.482Z,-0.20
2019-05-05T02:54:16.803Z,-0.20
2019-05-05T02:56:47.945Z,-0.10
2019-05-05T02:59:26.769Z,0.00
2019-05-05T03:02:23.663Z,0.10
2019-05-05T03:04:53.724Z,0.10
2019-05-05T03:07:26.010Z,0.10
2019-05-05T03:09:55.323Z,0.10
2019-05-05T03:12:26.947Z,0.10
2019-05-05T03:14:58.544Z,0.00
2019-05-05T03:17:28.155Z,0.00
2019-05-05T03:19:57.929Z,-0.10
2019-05-05T03:22:27.770Z,-0.10
2019-05-05T03:24:57.348Z,-0.20
2019-05-05T03:27:26.988Z,-0.20
2019-05-05T03:29:56.607Z,-0.30
2019-05-05T03:32:26.248Z,-0.30
2019-05-05T03:34:55.861Z,-0.40
2019-05-05T03:37:25.173Z,-0.40
2019-05-05T03:40:00.710Z,-0.50
2019-05-05T03:42:36.329Z,-0.50
2019-05-05T03:45:14.570Z,-0.50
2019-05-05T03:47:44.151Z,-0.50
2019-05-05T03:50:14.451Z,-0.60
2019-05-05T03:52:44.466Z,-0.60
2019-05-05T03:55:13.949Z,-0.60
2019-05-05T03:57:44.613Z,-0.60
2019-05-05T04:00:15.845Z,-0.60
2019-05-05T04:02:50.339Z,-0.60
2019-05-05T04:05:38.753Z,-0.60
2019-05-05T04:08:08.115Z,-0.60
2019-05-05T04:10:37.682Z,-0.60
2019-05-05T04:13:07.531Z,-0.60
2019-05-05T04:15:38.110Z,-0.50
2019-05-05T04:18:23.869Z,-0.50
2019-05-05T04:20:53.548Z,-0.50
2019-05-05T04:23:24.527Z,-0.40
2019-05-05T04:25:54.476Z,-0.40
2019-05-05T04:28:24.118Z,-0.40
2019-05-05T04:30:53.741Z,-0.30
2019-05-05T04:33:23.663Z,-0.30
2019-05-05T04:35:54.495Z,-0.30
2019-05-05T04:38:24.363Z,-0.20
2019-05-05T04:40:54.244Z,-0.20
2019-05-05T04:43:24.621Z,-0.10
2019-05-05T04:45:54.269Z,-0.10
2019-05-05T04:48:36.480Z,-0.10
2019-05-05T04:51:14.018Z,0.00
2019-05-05T04:54:17.500Z,0.00
2019-05-05T04:56:46.903Z,0.10
2019-05-05T04:59:16.209Z,0.30
2019-05-05T05:01:46.857Z,0.50
2019-05-05T05:04:37.928Z,0.70
2019-05-05T05:07:07.466Z,0.90
2019-05-05T05:09:36.886Z,1.20
2019-05-05T05:12:06.268Z,1.40
2019-05-05T05:14:35.666Z,1.60
2019-05-05T05:17:08.256Z,1.90
2019-05-05T05:19:37.597Z,2.10
2019-05-05T05:22:09.710Z,2.40
2019-05-05T05:24:39.041Z,2.60
2019-05-05T05:27:08.495Z,2.80
2019-05-05T05:29:37.915Z,3.00
2019-05-05T05:32:07.323Z,3.30
2019-05-05T05:34:36.667Z,3.40
2019-05-05T05:37:06.106Z,3.50
2019-05-05T05:39:41.657Z,3.50
2019-05-05T05:42:11.017Z,3.40
2019-05-05T05:44:50.955Z,3.60
2019-05-05T05:47:54.768Z,3.90
2019-05-05T05:50:31.512Z,4.30
2019-05-05T05:53:00.813Z,4.70
2019-05-05T05:55:30.188Z,5.00
2019-05-05T05:57:59.641Z,5.30
2019-05-05T06:00:28.992Z,5.50
2019-05-05T06:02:58.331Z,5.40
2019-05-05T06:05:27.707Z,5.30
2019-05-05T06:07:57.094Z,5.20
2019-05-05T06:10:27.464Z,5.10
2019-05-05T06:12:57.155Z,5.10
2019-05-05T06:15:26.465Z,5.10
2019-05-05T06:17:55.746Z,5.20
2019-05-05T06:20:24.949Z,5.40
2019-05-05T06:22:54.416Z,5.50
2019-05-05T06:25:26.685Z,5.50
2019-05-05T06:27:54.740Z,5.70
2019-05-05T06:30:27.077Z,5.70
2019-05-05T06:32:56.461Z,5.60
2019-05-05T06:35:26.033Z,5.60
2019-05-05T06:37:55.432Z,5.70
2019-05-05T06:40:47.565Z,5.80
2019-05-05T06:43:34.941Z,5.90
2019-05-05T06:46:05.933Z,6.00
2019-05-05T06:48:35.316Z,6.20
2019-05-05T06:51:04.663Z,6.40
2019-05-05T06:53:34.266Z,6.80
2019-05-05T06:56:04.175Z,7.10
2019-05-05T06:58:34.770Z,7.40
2019-05-05T07:01:04.359Z,7.50
2019-05-05T07:03:33.851Z,7.60
2019-05-05T07:06:04.334Z,7.40
2019-05-05T07:08:34.842Z,7.30
2019-05-05T07:11:04.421Z,7.10
2019-05-05T07:13:34.022Z,7.20
2019-05-05T07:16:04.812Z,7.30
2019-05-05T07:18:34.614Z,7.50
2019-05-05T07:21:04.061Z,7.50
2019-05-05T07:23:34.250Z,7.40
2019-05-05T07:26:04.192Z,7.60
2019-05-05T07:28:34.317Z,7.70
2019-05-05T07:31:04.554Z,7.80
2019-05-05T07:33:34.766Z,7.70
2019-05-05T07:36:22.019Z,7.50
2019-05-05T07:38:51.421Z,7.50
2019-05-05T07:41:20.775Z,7.60
2019-05-05T07:43:50.214Z,7.70
2019-05-05T07:46:19.515Z,7.90
2019-05-05T07:48:48.852Z,8.10
2019-05-05T07:51:18.243Z,8.20
2019-05-05T07:53:47.565Z,8.40
2019-05-05T07:56:23.789Z,8.30
2019-05-05T07:58:54.356Z,8.30
2019-05-05T08:01:24.488Z,8.10
2019-05-05T08:03:54.057Z,8.00
2019-05-05T08:06:23.758Z,7.70
2019-05-05T08:08:54.617Z,8.00
2019-05-05T08:11:24.025Z,8.00
2019-05-05T08:13:54.715Z,8.00
2019-05-05T08:16:34.197Z,8.20
2019-05-05T08:19:34.844Z,8.20
2019-05-05T08:22:04.190Z,8.20
2019-05-05T08:25:05.507Z,8.20
2019-05-05T08:27:57.773Z,8.30
2019-05-05T08:30:58.555Z,8.40
2019-05-05T08:33:27.940Z,8.40
2019-05-05T08:35:57.381Z,8.30
2019-05-05T08:38:26.716Z,8.30
2019-05-05T08:40:59.733Z,8.20
2019-05-05T08:43:29.420Z,8.10
2019-05-05T08:46:01.832Z,8.10
2019-05-05T08:48:31.263Z,8.20
2019-05-05T08:51:01.333Z,8.30
2019-05-05T08:53:44.030Z,8.50
2019-05-05T08:56:04.109Z,8.70
2019-05-05T08:58:36.149Z,8.80
2019-05-05T09:01:05.460Z,9.00
2019-05-05T09:03:39.368Z,9.10
2019-05-05T09:06:08.621Z,9.30
2019-05-05T09:08:38.301Z,9.30
2019-05-05T09:11:09.337Z,9.20
2019-05-05T09:13:38.938Z,9.60
2019-05-05T09:16:08.260Z,10.20
2019-05-05T09:18:39.646Z,10.90
2019-05-05T09:21:08.993Z,11.40
2019-05-05T09:23:39.855Z,12.00
2019-05-05T09:26:21.356Z,12.60
2019-05-05T09:29:15.714Z,13.20
2019-05-05T09:31:45.222Z,13.40
2019-05-05T09:34:14.769Z,13.50
2019-05-05T09:36:44.081Z,13.10
2019-05-05T09:39:13.947Z,12.90
2019-05-05T09:41:44.680Z,12.50
2019-05-05T09:44:14.119Z,12.10
2019-05-05T09:46:44.655Z,12.10
2019-05-05T09:49:14.301Z,12.00
2019-05-05T09:51:44.132Z,11.70
2019-05-05T09:54:16.644Z,11.40
2019-05-05T09:56:44.668Z,11.30
2019-05-05T09:59:14.123Z,11.00
2019-05-05T10:01:44.512Z,10.90
2019-05-05T10:04:14.529Z,10.90
2019-05-05T10:06:47.675Z,10.40
2019-05-05T10:09:16.741Z,10.00
2019-05-05T10:11:47.641Z,9.70
2019-05-05T10:14:17.469Z,9.60
2019-05-05T10:16:46.851Z,9.20
2019-05-05T10:19:16.179Z,9.20
2019-05-05T10:21:45.555Z,9.20
2019-05-05T10:24:31.177Z,9.20
2019-05-05T10:27:00.276Z,9.10
2019-05-05T10:29:29.645Z,8.90
2019-05-05T10:31:58.977Z,9.10
2019-05-05T10:34:28.339Z,9.10
2019-05-05T10:36:57.713Z,9.30
2019-05-05T10:39:40.457Z,9.80
2019-05-05T10:42:09.848Z,10.40
2019-05-05T10:44:39.238Z,10.80
2019-05-05T10:47:08.573Z,11.30
2019-05-05T10:49:37.993Z,12.00
2019-05-05T10:52:07.357Z,12.40
2019-05-05T10:54:43.989Z,12.50
2019-05-05T10:57:07.801Z,12.50
2019-05-05T10:59:37.142Z,12.70
2019-05-05T11:02:06.400Z,13.10
2019-05-05T11:04:35.725Z,13.20
2019-05-05T11:07:05.094Z,13.20
2019-05-05T11:09:34.796Z,13.10
2019-05-05T11:12:04.088Z,13.50
2019-05-05T11:14:33.775Z,13.50
2019-05-05T11:17:04.124Z,13.60
2019-05-05T11:19:33.804Z,13.60
2019-05-05T11:22:03.210Z,13.40
2019-05-05T11:24:34.657Z,13.40
2019-05-05T11:27:04.517Z,13.20
2019-05-05T11:29:35.623Z,13.10
2019-05-05T11:32:07.635Z,12.90
2019-05-05T11:34:37.023Z,12.40
2019-05-05T11:37:09.180Z,11.70
2019-05-05T11:39:38.474Z,11.00
2019-05-05T11:42:07.895Z,10.70
2019-05-05T11:44:37.318Z,10.70
2019-05-05T11:47:06.767Z,10.70
2019-05-05T11:49:36.177Z,10.80
2019-05-05T11:52:05.669Z,10.90
2019-05-05T11:54:35.032Z,11.00
2019-05-05T11:57:04.571Z,11.00
2019-05-05T11:59:33.968Z,11.00
2019-05-05T12:02:03.878Z,11.00
2019-05-05T12:04:33.316Z,10.90
2019-05-05T12:07:04.096Z,10.70
2019-05-05T12:09:40.515Z,10.60
2019-05-05T12:12:09.852Z,10.40
2019-05-05T12:14:39.409Z,10.30
2019-05-05T12:17:08.747Z,10.10
2019-05-05T12:19:38.090Z,9.90
2019-05-05T12:22:07.550Z,9.80
2019-05-05T12:24:41.097Z,9.70
2019-05-05T12:27:31.088Z,9.70
2019-05-05T12:30:11.148Z,9.60
2019-05-05T12:32:40.444Z,9.50
2019-05-05T12:35:09.806Z,9.50
2019-05-05T12:37:39.238Z,9.50
2019-05-05T12:40:08.733Z,9.50
2019-05-05T12:42:38.202Z,9.50
2019-05-05T12:45:10.563Z,9.60
2019-05-05T12:47:57.799Z,9.80
2019-05-05T12:50:27.467Z,10.00
2019-05-05T12:52:56.883Z,10.20
2019-05-05T12:55:39.176Z,10.60
2019-05-05T12:57:57.231Z,10.90
2019-05-05T13:00:26.742Z,11.40
2019-05-05T13:02:56.043Z,11.90
2019-05-05T13:05:25.557Z,12.30
2019-05-05T13:07:54.962Z,12.40
2019-05-05T13:10:24.538Z,12.70
2019-05-05T13:12:54.403Z,13.00
2019-05-05T13:15:24.723Z,13.30
2019-05-05T13:17:54.356Z,14.00
2019-05-05T13:20:35.315Z,14.20
2019-05-05T13:23:26.393Z,14.30
2019-05-05T13:26:11.351Z,14.60
2019-05-05T13:28:40.696Z,15.00
2019-05-05T13:31:10.082Z,15.70
2019-05-05T13:33:39.371Z,15.70
2019-05-05T13:36:08.672Z,15.50
2019-05-05T13:38:38.159Z,15.10
2019-05-05T13:41:07.561Z,15.00
2019-05-05T13:43:36.935Z,15.00
2019-05-05T13:46:14.153Z,14.90
2019-05-05T13:48:44.371Z,14.80
2019-05-05T13:51:14.752Z,14.40
2019-05-05T13:53:44.722Z,14.10
2019-05-05T13:56:15.413Z,14.00
2019-05-05T13:58:44.975Z,13.70
2019-05-05T14:01:14.631Z,13.50
2019-05-05T14:03:44.749Z,13.40
2019-05-05T14:06:14.615Z,13.30
2019-05-05T14:08:44.795Z,13.10
2019-05-05T14:11:14.379Z,12.60
2019-05-05T14:13:45.491Z,12.40
2019-05-05T14:16:14.815Z,12.30
2019-05-05T14:18:44.229Z,12.20
2019-05-05T14:21:14.047Z,12.20
2019-05-05T14:24:10.394Z,12.30
2019-05-05T14:26:39.736Z,12.20
2019-05-05T14:29:10.805Z,12.20
2019-05-05T14:31:40.480Z,12.20
2019-05-05T14:34:25.705Z,12.20
2019-05-05T14:37:14.284Z,12.20
2019-05-05T14:39:43.896Z,12.10
2019-05-05T14:42:14.724Z,12.10
2019-05-05T14:44:44.109Z,12.20
2019-05-05T14:47:13.707Z,12.20
2019-05-05T14:49:44.390Z,12.30
2019-05-05T14:52:13.763Z,12.40
2019-05-05T14:54:43.448Z,12.60
2019-05-05T14:57:13.919Z,12.90
2019-05-05T14:59:43.354Z,13.20
2019-05-05T15:02:14.443Z,13.40
2019-05-05T15:04:44.425Z,13.50
2019-05-05T15:07:29.421Z,13.60
2019-05-05T15:10:19.360Z,13.90
2019-05-05T15:12:53.835Z,14.00
2019-05-05T15:15:23.630Z,13.90
2019-05-05T15:17:53.694Z,13.70
2019-05-05T15:20:24.506Z,13.50
2019-05-05T15:22:54.314Z,13.10
2019-05-05T15:25:24.039Z,13.10
2019-05-05T15:27:54.175Z,12.80
2019-05-05T15:30:26.588Z,12.80
2019-05-05T15:32:54.935Z,12.70
2019-05-05T15:35:24.328Z,12.60
2019-05-05T15:37:54.162Z,12.50
2019-05-05T15:40:24.776Z,12.50
2019-05-05T15:42:54.472Z,12.40
2019-05-05T15:45:23.980Z,12.30
2019-05-05T15:47:54.070Z,12.00
2019-05-05T15:50:23.495Z,11.70
2019-05-05T15:52:54.341Z,11.40
2019-05-05T15:55:24.517Z,11.10
2019-05-05T15:57:53.963Z,10.80
2019-05-05T16:00:25.481Z,10.60
2019-05-05T16:02:54.926Z,10.40
2019-05-05T16:05:24.380Z,10.30
2019-05-05T16:07:54.285Z,10.20
2019-05-05T16:10:25.222Z,10.20
2019-05-05T16:12:54.740Z,10.10
2019-05-05T16:15:43.069Z,10.10
2019-05-05T16:18:46.647Z,10.10
2019-05-05T16:21:34.602Z,10.20
2019-05-05T16:24:08.207Z,10.20
2019-05-05T16:26:37.532Z,10.30
2019-05-05T16:29:06.816Z,10.40
2019-05-05T16:31:36.184Z,10.50
2019-05-05T16:34:05.473Z,10.60
2019-05-05T16:36:34.861Z,10.60
2019-05-05T16:39:05.073Z,10.70
2019-05-05T16:41:34.423Z,10.80
2019-05-05T16:44:04.195Z,10.90
2019-05-05T16:46:34.137Z,11.00
2019-05-05T16:49:03.658Z,11.00
2019-05-05T16:51:36.374Z,11.10
2019-05-05T16:54:09.859Z,11.20
2019-05-05T16:56:39.217Z,11.20
2019-05-05T16:59:08.589Z,11.20
2019-05-05T17:01:37.951Z,11.30
2019-05-05T17:04:11.140Z,11.20
2019-05-05T17:06:39.413Z,11.20
2019-05-05T17:09:08.730Z,11.20
2019-05-05T17:11:38.068Z,11.20
2019-05-05T17:14:26.333Z,11.10
2019-05-05T17:17:16.024Z,11.00
2019-05-05T17:19:49.160Z,10.90
2019-05-05T17:22:34.987Z,10.80
2019-05-05T17:25:06.685Z,10.60
2019-05-05T17:27:47.795Z,10.50
2019-05-05T17:30:07.602Z,10.50
2019-05-05T17:32:36.980Z,10.50
2019-05-05T17:35:06.734Z,10.50
2019-05-05T17:37:38.444Z,10.40
2019-05-05T17:40:24.237Z,10.40
2019-05-05T17:43:25.184Z,10.40
2019-05-05T17:46:03.764Z,10.40
2019-05-05T17:48:44.067Z,10.30
2019-05-05T17:51:37.921Z,10.20
2019-05-05T17:54:19.910Z,10.10
2019-05-05T17:56:49.129Z,10.00
2019-05-05T17:59:18.476Z,9.90
2019-05-05T18:01:48.220Z,9.90
2019-05-05T18:04:17.543Z,9.80
2019-05-05T18:07:08.757Z,9.80
2019-05-05T18:09:56.258Z,9.80
2019-05-05T18:12:56.713Z,9.70
2019-05-05T18:15:43.988Z,9.60
2019-05-05T18:18:13.939Z,9.50
2019-05-05T18:20:44.950Z,9.40
2019-05-05T18:23:14.597Z,9.20
2019-05-05T18:25:44.253Z,9.10
2019-05-05T18:28:19.403Z,8.90
2019-05-05T18:30:44.771Z,8.80
2019-05-05T18:33:14.377Z,8.70
2019-05-05T18:35:44.473Z,8.60
2019-05-05T18:38:33.666Z,8.50
2019-05-05T18:41:07.979Z,8.40
2019-05-05T18:43:46.157Z,8.30
2019-05-05T18:46:15.436Z,8.20
2019-05-05T18:48:44.950Z,8.20
2019-05-05T18:51:14.522Z,8.10
2019-05-05T18:53:43.904Z,8.00
2019-05-05T18:56:14.421Z,8.00
2019-05-05T18:58:44.710Z,7.90
2019-05-05T19:01:35.973Z,7.80
2019-05-05T19:04:34.761Z,7.70
2019-05-05T19:07:09.673Z,7.60
2019-05-05T19:09:51.056Z,7.50
2019-05-05T19:12:10.411Z,7.40
2019-05-05T19:14:39.791Z,7.30
2019-05-05T19:17:09.165Z,7.20
2019-05-05T19:19:40.258Z,7.10
2019-05-05T19:22:13.728Z,7.10
2019-05-05T19:24:44.069Z,7.00
2019-05-05T19:27:14.262Z,6.90
2019-05-05T19:29:44.174Z,6.80
2019-05-05T19:32:14.794Z,6.70
2019-05-05T19:34:44.356Z,6.60
2019-05-05T19:37:14.081Z,6.60
2019-05-05T19:39:43.528Z,6.50
2019-05-05T19:42:14.422Z,6.40
2019-05-05T19:44:44.074Z,6.30
2019-05-05T19:47:18.995Z,6.30
2019-05-05T19:49:57.259Z,6.20
2019-05-05T19:52:26.596Z,6.20
2019-05-05T19:54:56.123Z,6.10
2019-05-05T19:57:25.495Z,6.00
2019-05-05T19:59:55.246Z,5.90
2019-05-05T20:02:24.671Z,5.80
2019-05-05T20:04:54.018Z,5.80
2019-05-05T20:07:24.783Z,5.60
2019-05-05T20:09:57.347Z,5.50
2019-05-05T20:12:26.832Z,5.50
2019-05-05T20:14:56.526Z,5.40
2019-05-05T20:17:34.273Z,5.30
2019-05-05T20:20:04.601Z,5.20
2019-05-05T20:22:34.798Z,5.10
2019-05-05T20:25:04.673Z,5.00
2019-05-05T20:27:34.431Z,4.90
2019-05-05T20:30:06.474Z,4.80
2019-05-05T20:32:59.351Z,4.70
2019-05-05T20:36:06.257Z,4.60
2019-05-05T20:38:39.009Z,4.50
2019-05-05T20:41:15.484Z,4.50
2019-05-05T20:43:45.105Z,4.40
2019-05-05T20:46:14.381Z,4.30
2019-05-05T20:48:44.853Z,4.30
2019-05-05T20:51:14.353Z,4.30
2019-05-05T20:53:44.770Z,4.30
2019-05-05T20:56:15.030Z,4.30
2019-05-05T20:58:44.386Z,4.30
2019-05-05T21:01:14.105Z,4.30
2019-05-05T21:03:43.626Z,4.30
2019-05-05T21:06:13.812Z,4.30
2019-05-05T21:08:44.015Z,4.40
2019-05-05T21:11:14.279Z,4.40
2019-05-05T21:13:45.194Z,4.30
2019-05-05T21:16:14.817Z,4.30
2019-05-05T21:18:44.217Z,4.20
2019-05-05T21:21:18.916Z,4.10
2019-05-05T21:23:59.243Z,4.10
2019-05-05T21:27:06.018Z,4.00
2019-05-05T21:29:41.433Z,3.90
2019-05-05T21:32:06.403Z,3.90
2019-05-05T21:34:35.687Z,3.80
2019-05-05T21:37:05.091Z,3.80
2019-05-05T21:39:34.920Z,3.70
2019-05-05T21:42:04.806Z,3.70
2019-05-05T21:44:34.459Z,3.60
2019-05-05T21:47:04.027Z,3.60
2019-05-05T21:49:35.502Z,3.50
2019-05-05T21:52:26.922Z,3.50
2019-05-05T21:55:09.486Z,3.40
2019-05-05T21:58:04.385Z,3.40
2019-05-05T22:00:51.724Z,3.30
2019-05-05T22:03:27.866Z,3.30
2019-05-05T22:05:57.213Z,3.20
2019-05-05T22:08:26.622Z,3.10
2019-05-05T22:10:55.952Z,3.00
2019-05-05T22:13:25.309Z,3.00
2019-05-05T22:15:54.677Z,2.90
2019-05-05T22:18:23.952Z,2.90
2019-05-05T22:20:59.654Z,2.80
2019-05-05T22:23:29.059Z,2.80
2019-05-05T22:25:58.434Z,2.80
2019-05-05T22:28:27.887Z,2.80
2019-05-05T22:30:57.179Z,2.80
2019-05-05T22:33:26.389Z,2.80
2019-05-05T22:35:55.635Z,2.70
2019-05-05T22:38:24.946Z,2.60
2019-05-05T22:40:54.587Z,2.60
2019-05-05T22:43:23.999Z,2.60
2019-05-05T22:45:54.382Z,2.50
2019-05-05T22:48:24.409Z,2.50
2019-05-05T22:50:54.497Z,2.50
2019-05-05T22:53:24.284Z,2.50
2019-05-05T22:55:53.616Z,2.50
2019-05-05T22:58:24.009Z,2.50
2019-05-05T23:00:54.846Z,2.50
2019-05-05T23:03:39.849Z,2.50
2019-05-05T23:06:13.764Z,2.50
2019-05-05T23:08:45.207Z,2.60
2019-05-05T23:11:14.521Z,2.60
2019-05-05T23:13:44.417Z,2.50
2019-05-05T23:16:35.822Z,2.50
2019-05-05T23:19:05.577Z,2.50
2019-05-05T23:21:41.115Z,2.40
2019-05-05T23:24:23.786Z,2.40
2019-05-05T23:26:54.552Z,2.40
2019-05-05T23:29:26.583Z,2.30
2019-05-05T23:31:56.045Z,2.30
2019-05-05T23:34:25.250Z,2.20
2019-05-05T23:36:54.688Z,2.20
2019-05-05T23:39:24.382Z,2.10
2019-05-05T23:41:54.691Z,2.00
2019-05-05T23:44:24.324Z,2.00
2019-05-05T23:46:53.954Z,2.00
2019-05-05T23:49:24.189Z,1.90
2019-05-05T23:51:54.068Z,1.90
2019-05-05T23:54:24.642Z,1.80
2019-05-05T23:56:54.182Z,1.80
2019-05-05T23:59:24.111Z,1.70
